Time;durP1;ratioP1;P1;durP2;ratioP2;P2;SDS_P1;SDS_P2;PMS_P1;PMS_P2;Temp;Humidity;BMP_temperature;BMP_pressure;BME280_temperature;BME280_humidity;BME280_pressure;Samples;Min_cycle;Max_cycle;Signal;HPM_P1;HPM_P2
2021/12/31 00:01:06;;;;;;;5.65;1.23;;;;;;;14.02;88.32;101536.97;5068579;28;20452;-73
2021/12/31 00:03:32;;;;;;;4.07;1.35;;;;;;;14.06;87.38;101537.53;5067497;28;20059;-74
2021/12/31 00:06:16;;;;;;;3.88;1.77;;;;;;;14.13;87.10;101529.00;5076444;28;20056;-73
2021/12/31 00:08:55;;;;;;;3.47;1.42;;;;;;;14.10;87.66;101531.88;5087415;28;20112;-73
2021/12/31 00:11:26;;;;;;;4.18;1.10;;;;;;;14.10;87.42;101523.09;5094294;28;20481;-75
2021/12/31 00:13:53;;;;;;;5.72;1.42;;;;;;;14.10;87.42;101529.25;5087548;28;20123;-74
2021/12/31 00:16:27;;;;;;;3.80;1.10;;;;;;;14.13;86.88;101529.00;5061125;28;20044;-73
2021/12/31 00:18:56;;;;;;;5.45;1.40;;;;;;;14.10;87.81;101542.47;5067358;28;20055;-74
2021/12/31 00:21:32;;;;;;;3.08;1.30;;;;;;;14.12;87.12;101531.78;5065566;28;20051;-75
2021/12/31 00:24:05;;;;;;;6.70;1.52;;;;;;;14.09;87.33;101527.56;5064032;28;20205;-73
2021/12/31 00:26:36;;;;;;;1.90;1.20;;;;;;;14.18;86.66;101531.28;5061644;28;20048;-72
2021/12/31 00:29:21;;;;;;;4.82;1.70;;;;;;;14.16;86.42;101517.38;5062285;28;20184;-74
2021/12/31 00:31:49;;;;;;;2.10;1.05;;;;;;;14.20;86.22;101524.91;5058474;28;20044;-73
2021/12/31 00:34:26;;;;;;;3.63;0.98;;;;;;;14.14;86.80;101522.78;5063404;28;20155;-73
2021/12/31 00:37:00;;;;;;;6.75;1.42;;;;;;;14.15;86.35;101531.56;5060645;28;20487;-74
2021/12/31 00:39:27;;;;;;;5.05;1.15;;;;;;;14.20;86.56;101534.66;5061188;28;20044;-73
2021/12/31 00:42:08;;;;;;;3.50;1.30;;;;;;;14.15;85.61;101537.66;5038870;28;20054;-71
2021/12/31 00:44:44;;;;;;;4.18;1.50;;;;;;;14.11;86.56;101543.31;5061317;28;20050;-71
2021/12/31 00:47:12;;;;;;;7.90;1.30;;;;;;;14.18;86.07;101536.56;5060476;28;20048;-72
2021/12/31 00:49:42;;;;;;;2.90;1.43;;;;;;;14.15;86.40;101537.66;5059209;28;20052;-73
2021/12/31 00:52:09;;;;;;;5.85;1.45;;;;;;;14.15;86.32;101537.66;5058201;28;20052;-71
2021/12/31 00:54:39;;;;;;;2.30;1.10;;;;;;;14.21;85.91;101542.44;5058840;28;20358;-72
2021/12/31 00:57:06;;;;;;;4.60;1.50;;;;;;;14.23;85.68;101540.53;5058537;28;20052;-73
2021/12/31 00:59:36;;;;;;;3.47;1.38;;;;;;;14.15;85.96;101542.13;5058527;28;20047;-74
2021/12/31 01:02:10;;;;;;;5.95;1.27;;;;;;;14.04;87.33;101555.31;5060204;28;20047;-74
2021/12/31 01:04:54;;;;;;;5.35;0.90;;;;;;;13.96;86.88;101557.75;5065635;28;20055;-74
2021/12/31 01:07:55;;;;;;;2.63;1.17;;;;;;;13.94;86.16;101563.16;5003609;28;20057;-72
2021/12/31 01:10:28;;;;;;;2.60;1.10;;;;;;;13.89;86.60;101557.38;5010788;28;20055;-73
2021/12/31 01:13:08;;;;;;;2.05;1.30;;;;;;;14.00;86.74;101561.78;5042213;28;20056;-72
2021/12/31 01:15:38;;;;;;;4.18;1.25;;;;;;;13.93;86.56;101556.19;5059439;28;20040;-72
2021/12/31 01:21:05;;;;;;;5.45;1.67;;;;;;;13.87;86.71;101550.53;5043801;28;20381;-73
2021/12/31 01:23:50;;;;;;;33.22;3.78;;;;;;;13.93;86.61;101552.69;5061943;28;20069;-71
2021/12/31 01:26:26;;;;;;;2.30;0.88;;;;;;;13.91;86.97;101555.47;5060434;28;20050;-75
2021/12/31 01:28:56;;;;;;;2.42;1.30;;;;;;;13.88;87.77;101560.16;5063109;28;20127;-73
2021/12/31 01:31:24;;;;;;;2.33;1.20;;;;;;;13.89;86.43;101560.03;5059386;28;20044;-72
2021/12/31 01:34:01;;;;;;;2.10;0.98;;;;;;;13.86;86.92;101562.94;5063240;28;20044;-76
2021/12/31 01:36:35;;;;;;;2.80;1.20;;;;;;;13.85;86.79;101552.47;5062700;28;20058;-74
2021/12/31 01:39:08;;;;;;;3.13;0.90;;;;;;;13.92;86.28;101561.56;5045404;28;20140;-72
2021/12/31 01:41:35;;;;;;;2.35;1.00;;;;;;;13.94;85.18;101549.09;5064487;28;20521;-73
2021/12/31 01:44:06;;;;;;;1.88;0.82;;;;;;;13.94;86.22;101549.09;5061315;28;20046;-73
2021/12/31 01:46:54;;;;;;;6.70;1.27;;;;;;;13.92;86.47;101545.72;5063838;28;20634;-72
2021/12/31 01:49:33;;;;;;;3.63;1.42;;;;;;;13.91;86.15;101547.53;5064996;28;20131;-74
2021/12/31 01:52:13;;;;;;;4.10;1.10;;;;;;;13.89;85.88;101552.09;5065806;28;20756;-72
2021/12/31 01:54:43;;;;;;;2.93;1.50;;;;;;;13.88;85.26;101545.13;5065531;28;20123;-73
2021/12/31 01:57:11;;;;;;;4.78;1.20;;;;;;;13.86;86.78;101546.22;5067471;28;20046;-74
2021/12/31 01:59:45;;;;;;;9.77;0.98;;;;;;;13.89;85.56;101552.09;5068716;28;20135;-75
2021/12/31 02:02:16;;;;;;;4.35;1.20;;;;;;;13.92;85.57;101551.00;5068154;28;20048;-73
2021/12/31 02:04:44;;;;;;;3.17;1.27;;;;;;;13.92;85.05;101551.00;5072754;28;20162;-70
2021/12/31 02:07:17;;;;;;;2.90;1.27;;;;;;;13.94;85.29;101551.72;5077320;28;20048;-72
2021/12/31 02:09:49;;;;;;;2.25;1.33;;;;;;;13.98;85.26;101551.38;5071066;28;20052;-73
2021/12/31 02:12:17;;;;;;;6.68;1.13;;;;;;;13.99;85.10;101560.97;5069314;28;20112;-73
2021/12/31 02:14:50;;;;;;;3.67;1.05;;;;;;;13.93;85.21;101547.41;5084463;28;20050;-71
2021/12/31 02:17:19;;;;;;;2.92;1.05;;;;;;;13.96;84.93;101558.56;5078967;28;20105;-73
2021/12/31 02:20:03;;;;;;;6.07;1.23;;;;;;;13.97;85.27;101556.78;5074208;28;20059;-74
2021/12/31 02:22:30;;;;;;;8.15;0.95;;;;;;;14.00;84.63;101552.09;5069939;28;20052;-74
2021/12/31 02:25:00;;;;;;;6.38;1.00;;;;;;;13.99;85.29;101550.41;5070549;28;20048;-74
2021/12/31 02:27:27;;;;;;;1.50;1.00;;;;;;;14.10;85.02;101554.81;5070632;28;20044;-72
2021/12/31 02:30:09;;;;;;;2.25;1.48;;;;;;;14.04;84.35;101545.56;5067842;28;20484;-74
2021/12/31 02:32:47;;;;;;;2.03;1.08;;;;;;;14.04;84.85;101556.16;5070644;28;20048;-74
2021/12/31 02:35:18;;;;;;;2.95;1.00;;;;;;;14.04;84.50;101550.03;5071265;28;20040;-74
2021/12/31 02:37:58;;;;;;;3.43;1.10;;;;;;;14.03;84.69;101543.94;5069007;28;20060;-74
2021/12/31 02:40:28;;;;;;;4.03;1.30;;;;;;;14.04;84.40;101534.19;5063881;28;20079;-74
2021/12/31 02:43:14;;;;;;;3.63;1.40;;;;;;;14.06;84.45;101534.91;5068405;28;20055;-73
2021/12/31 02:46:00;;;;;;;6.57;1.50;;;;;;;14.12;83.65;101529.16;5070018;28;20144;-73
2021/12/31 02:48:27;;;;;;;3.60;1.25;;;;;;;14.08;83.59;101528.53;5081683;28;20043;-73
2021/12/31 02:51:14;;;;;;;5.90;1.23;;;;;;;14.10;84.31;101523.97;5074021;28;20142;-74
2021/12/31 02:53:47;;;;;;;5.07;1.17;;;;;;;14.07;84.26;101541.88;5077503;28;20054;-73
2021/12/31 02:56:27;;;;;;;2.70;1.05;;;;;;;13.99;84.77;101539.84;5061716;28;20048;-72
2021/12/31 02:59:01;;;;;;;1.25;0.82;;;;;;;14.08;84.03;101540.88;5062128;28;20127;-72
2021/12/31 03:01:27;;;;;;;3.45;1.17;;;;;;;14.09;84.04;101526.72;5065439;28;20048;-73
2021/12/31 03:04:13;;;;;;;7.50;1.05;;;;;;;14.02;83.81;101530.81;5042572;28;20073;-73
2021/12/31 03:06:46;;;;;;;5.05;1.48;;;;;;;14.03;84.82;101521.94;5061225;28;20054;-73
2021/12/31 03:09:13;;;;;;;2.78;1.08;;;;;;;14.02;83.82;101536.09;5059712;28;20044;-72
2021/12/31 03:11:43;;;;;;;2.63;0.80;;;;;;;14.07;84.20;101526.03;5057963;28;20465;-73
2021/12/31 03:14:10;;;;;;;4.45;1.55;;;;;;;13.99;83.22;101515.22;5058875;28;20040;-74
2021/12/31 03:16:37;;;;;;;6.97;1.20;;;;;;;14.00;83.90;101525.66;5060340;28;20155;-71
2021/12/31 03:19:04;;;;;;;2.17;1.10;;;;;;;14.00;84.82;101527.44;5058837;28;20063;-73
2021/12/31 03:21:52;;;;;;;5.20;1.73;;;;;;;13.96;83.70;101512.81;5059034;28;20779;-73
2021/12/31 03:24:26;;;;;;;2.03;1.20;;;;;;;14.03;83.73;101516.66;5061183;28;20482;-74
2021/12/31 03:26:53;;;;;;;2.83;1.00;;;;;;;13.97;84.29;101517.97;5061227;28;20578;-75
2021/12/31 03:29:26;;;;;;;3.17;1.08;;;;;;;13.89;84.05;101519.56;5059074;28;20036;-72
2021/12/31 03:32:11;;;;;;;2.63;0.80;;;;;;;13.86;85.21;101517.16;5060691;28;20105;-73
2021/12/31 03:34:58;;;;;;;4.25;1.23;;;;;;;13.82;85.45;101506.00;5061593;28;20063;-73
2021/12/31 03:37:27;;;;;;;2.28;1.08;;;;;;;13.87;85.32;101510.94;5060743;28;20529;-74
2021/12/31 03:39:58;;;;;;;6.53;1.60;;;;;;;13.88;84.44;101491.47;5060815;28;20048;-73
2021/12/31 03:42:26;;;;;;;3.78;1.20;;;;;;;13.80;85.11;101505.28;5060177;28;20327;-72
2021/12/31 03:44:58;;;;;;;;;;;;;;;13.84;84.30;101495.31;5059008;28;20044;-72
2021/12/31 03:47:26;;;;;;;4.40;1.30;;;;;;;13.82;84.12;101484.06;5062040;28;19958;-73
2021/12/31 03:50:11;;;;;;;3.17;1.00;;;;;;;13.79;85.16;101498.31;5058772;28;20047;-72
2021/12/31 03:52:41;;;;;;;2.28;0.88;;;;;;;13.79;85.48;101508.88;5060594;28;20044;-72
2021/12/31 03:55:10;;;;;;;3.53;1.30;;;;;;;13.81;85.27;101511.44;5061046;28;20036;-72
2021/12/31 03:57:37;;;;;;;7.65;1.33;;;;;;;13.80;84.36;101501.81;5060804;28;20040;-73
2021/12/31 04:00:18;;;;;;;3.55;1.08;;;;;;;13.72;85.38;101512.16;5060541;28;20052;-73
2021/12/31 04:02:45;;;;;;;7.28;0.82;;;;;;;13.70;85.09;101508.78;5062284;28;20052;-73
2021/12/31 04:05:12;;;;;;;4.93;1.10;;;;;;;13.70;85.14;101514.06;5061742;28;20055;-73
2021/12/31 04:07:52;;;;;;;4.50;1.15;;;;;;;13.79;84.54;101508.06;5072934;28;20790;-73
2021/12/31 04:10:28;;;;;;;2.65;1.25;;;;;;;13.73;84.47;101508.56;5065050;28;20040;-74
2021/12/31 04:12:59;;;;;;;3.08;1.17;;;;;;;13.71;85.89;101510.47;5082278;28;20145;-73
2021/12/31 04:15:26;;;;;;;7.63;1.50;;;;;;;13.72;84.80;101509.53;5076331;28;20066;-73
2021/12/31 04:17:53;;;;;;;1.98;1.10;;;;;;;13.78;85.00;101511.66;5071230;28;20044;-71
2021/12/31 04:20:32;;;;;;;5.78;1.23;;;;;;;13.73;85.44;101505.91;5047963;28;20044;-73
2021/12/31 04:23:01;;;;;;;5.65;0.80;;;;;;;13.67;85.54;101493.19;5065820;28;20052;-72
2021/12/31 04:25:28;;;;;;;3.55;0.90;;;;;;;13.66;85.02;101502.09;5061048;28;20040;-73
2021/12/31 04:28:02;;;;;;;3.72;1.00;;;;;;;13.70;84.64;101503.50;5065299;28;20052;-74
2021/12/31 04:30:48;;;;;;;1.25;0.82;;;;;;;13.71;84.93;101502.56;5060821;28;20055;-73
2021/12/31 04:33:17;;;;;;;3.03;1.27;;;;;;;13.78;85.02;101501.94;5062743;28;20076;-74
2021/12/31 04:35:48;;;;;;;1.85;1.00;;;;;;;13.84;83.76;101501.44;5062124;28;20094;-72
2021/12/31 04:38:16;;;;;;;4.38;1.13;;;;;;;13.94;83.46;101506.81;5061892;28;20137;-73
2021/12/31 04:40:51;;;;;;;2.40;1.00;;;;;;;13.92;83.96;101496.38;5061134;28;20047;-72
2021/12/31 04:43:26;;;;;;;1.95;1.23;;;;;;;13.97;83.73;101490.72;5061378;28;20044;-73
2021/12/31 04:45:53;;;;;;;1.35;0.80;;;;;;;13.95;83.57;101497.94;5059098;28;20059;-73
2021/12/31 04:48:26;;;;;;;6.88;1.48;;;;;;;13.92;84.05;101500.81;5063504;28;20133;-72
2021/12/31 04:50:53;;;;;;;4.00;1.20;;;;;;;13.92;83.67;101500.81;5057129;28;20045;-74
2021/12/31 04:53:21;;;;;;;4.00;1.20;;;;;;;13.86;83.82;101499.53;5062737;28;20043;-74
2021/12/31 04:55:50;;;;;;;4.72;1.25;;;;;;;13.87;84.13;101492.44;5041209;28;20126;-72
2021/12/31 04:58:26;;;;;;;2.83;1.25;;;;;;;13.79;84.65;101497.50;5046173;28;20062;-73
2021/12/31 05:00:54;;;;;;;6.78;1.10;;;;;;;13.67;84.82;101504.59;5052275;28;20044;-74
2021/12/31 05:03:26;;;;;;;3.95;1.38;;;;;;;13.63;85.64;101512.88;5063154;28;20044;-73
2021/12/31 05:06:05;;;;;;;3.00;1.35;;;;;;;13.65;85.81;101503.88;5044120;28;20044;-72
2021/12/31 05:08:34;;;;;;;3.22;0.70;;;;;;;13.63;85.37;101515.53;5062764;28;20048;-74
2021/12/31 05:11:11;;;;;;;3.10;1.15;;;;;;;13.57;85.51;101509.88;5070171;28;20533;-73
2021/12/31 05:13:40;;;;;;;4.85;1.30;;;;;;;13.60;85.43;101497.28;5069613;28;20063;-73
2021/12/31 05:16:13;;;;;;;3.65;1.05;;;;;;;13.56;85.68;101503.78;5060897;28;20148;-73
2021/12/31 05:18:42;;;;;;;7.95;1.70;;;;;;;13.50;85.64;101501.59;5062652;28;20048;-73
2021/12/31 05:21:09;;;;;;;5.88;1.20;;;;;;;13.45;86.68;101498.50;5065913;28;20055;-75
2021/12/31 05:23:50;;;;;;;3.95;1.20;;;;;;;13.39;87.01;101499.00;5066776;28;20048;-72
2021/12/31 05:26:24;;;;;;;5.43;1.42;;;;;;;13.48;86.44;101502.69;5066361;28;20130;-73
2021/12/31 05:29:02;;;;;;;3.70;0.80;;;;;;;13.42;86.30;101497.91;5067160;28;20048;-74
2021/12/31 05:31:34;;;;;;;2.20;0.95;;;;;;;13.39;86.69;101482.31;5058943;28;20075;-74
2021/12/31 05:34:01;;;;;;;3.45;1.20;;;;;;;13.28;86.54;101475.22;5041224;28;20067;-72
2021/12/31 05:36:35;;;;;;;2.25;0.90;;;;;;;13.20;86.44;101482.91;5060183;28;20054;-72
2021/12/31 05:39:13;;;;;;;5.40;1.13;;;;;;;13.27;86.77;101499.94;5041203;28;20764;-73
2021/12/31 05:41:52;;;;;;;2.83;1.38;;;;;;;13.28;86.54;101484.97;5060665;28;20039;-72
2021/12/31 05:44:26;;;;;;;6.72;0.95;;;;;;;13.36;86.57;101488.66;5061662;28;20075;-75
2021/12/31 05:46:53;;;;;;;4.47;1.10;;;;;;;13.36;86.30;101483.38;5059894;28;20139;-72
2021/12/31 05:49:26;;;;;;;3.83;1.00;;;;;;;13.29;86.13;101479.56;5067761;28;20129;-75
2021/12/31 05:51:53;;;;;;;10.57;1.35;;;;;;;13.34;86.86;101485.31;5069526;28;20055;-72
2021/12/31 05:54:21;;;;;;;4.82;0.90;;;;;;;13.37;85.52;101478.97;5062011;28;20058;-75
2021/12/31 05:56:48;;;;;;;4.10;1.00;;;;;;;13.34;86.65;101480.03;5070789;28;20066;-73
2021/12/31 05:59:26;;;;;;;9.93;1.02;;;;;;;13.25;87.02;101488.69;5073966;28;20048;-73
2021/12/31 06:01:55;;;;;;;5.32;1.38;;;;;;;13.24;87.02;101479.09;5067739;28;20046;-70
2021/12/31 06:04:22;;;;;;;3.35;1.05;;;;;;;13.31;86.67;101485.56;5070796;28;20054;-70
2021/12/31 06:06:50;;;;;;;7.53;1.17;;;;;;;13.36;85.74;101488.66;5074483;28;20051;-71
2021/12/31 06:09:29;;;;;;;8.30;1.27;;;;;;;13.28;86.79;101480.50;5077413;28;20036;-70
2021/12/31 06:12:16;;;;;;;6.32;1.20;;;;;;;13.16;87.00;101468.28;5082398;28;20048;-70
2021/12/31 06:15:03;;;;;;;6.47;1.10;;;;;;;13.01;87.44;101487.09;5074538;28;20032;-72
2021/12/31 06:17:35;;;;;;;3.65;1.40;;;;;;;12.87;87.45;101474.13;5080350;28;20104;-73
2021/12/31 06:20:17;;;;;;;1.50;0.75;;;;;;;12.82;87.45;101463.06;5072414;28;20530;-70
2021/12/31 06:22:45;;;;;;;3.25;1.10;;;;;;;12.77;87.67;101465.22;5073011;28;20454;-72
2021/12/31 06:25:22;;;;;;;3.58;1.30;;;;;;;12.71;87.79;101462.22;5066896;28;20035;-70
2021/12/31 06:27:49;;;;;;;3.88;1.10;;;;;;;12.70;88.15;101457.88;5072978;28;20078;-69
2021/12/31 06:30:26;;;;;;;3.45;1.60;;;;;;;12.71;87.49;101463.06;5071141;28;20055;-70
2021/12/31 06:32:53;;;;;;;2.00;1.00;;;;;;;12.66;88.12;101459.09;5069073;28;20131;-72
2021/12/31 06:35:22;;;;;;;3.20;0.95;;;;;;;12.62;87.94;101468.19;5071996;28;20059;-71
2021/12/31 06:37:52;;;;;;;2.40;1.17;;;;;;;12.68;88.01;101465.09;5068276;28;20044;-71
2021/12/31 06:40:29;;;;;;;3.17;1.17;;;;;;;12.70;87.23;101477.19;5071904;28;20047;-70
2021/12/31 06:42:57;;;;;;;2.00;1.10;;;;;;;12.62;87.69;101474.31;5071088;28;20048;-73
2021/12/31 06:45:26;;;;;;;3.58;1.33;;;;;;;12.56;88.32;101476.56;5072806;28;20658;-70
2021/12/31 06:48:09;;;;;;;0.98;0.63;;;;;;;12.58;87.74;101474.66;5067233;28;20127;-70
2021/12/31 06:50:35;;;;;;;7.57;1.13;;;;;;;12.49;87.87;101460.34;5055132;28;20114;-72
2021/12/31 06:53:20;;;;;;;6.32;1.55;;;;;;;12.46;88.15;101465.03;5070250;28;20079;-73
2021/12/31 06:56:09;;;;;;;6.10;1.20;;;;;;;12.44;87.92;101464.28;5068651;28;20047;-71
2021/12/31 06:58:40;;;;;;;2.78;1.10;;;;;;;12.37;89.13;101474.47;5066813;28;20052;-73
2021/12/31 07:01:07;;;;;;;6.07;1.38;;;;;;;12.35;88.84;101475.56;5057529;28;20051;-71
2021/12/31 07:03:40;;;;;;;5.57;1.10;;;;;;;12.28;88.97;101490.09;5067125;28;20048;-71
2021/12/31 07:06:07;;;;;;;2.35;1.20;;;;;;;12.27;89.34;101491.09;5060069;28;20065;-71
2021/12/31 07:08:34;;;;;;;2.00;1.23;;;;;;;12.31;88.53;101492.53;5072976;28;20107;-71
2021/12/31 07:11:02;;;;;;;2.03;1.30;;;;;;;12.23;89.35;101497.53;5072490;28;20146;-71
2021/12/31 07:13:48;;;;;;;2.45;1.30;;;;;;;12.20;89.87;101493.34;5072990;28;20062;-72
2021/12/31 07:16:27;;;;;;;1.88;0.90;;;;;;;12.15;89.41;101499.88;5073219;28;20040;-70
2021/12/31 07:18:54;;;;;;;5.57;1.20;;;;;;;12.16;89.81;101501.56;5078487;28;20037;-69
2021/12/31 07:21:21;;;;;;;1.92;0.90;;;;;;;12.10;89.90;101489.69;5074468;28;20036;-70
2021/12/31 07:23:55;;;;;;;2.95;1.40;;;;;;;12.14;89.37;101498.19;5081381;28;20051;-70
2021/12/31 07:26:21;;;;;;;3.15;1.00;;;;;;;12.14;89.60;101488.53;5079448;28;20496;-70
2021/12/31 07:28:52;;;;;;;2.92;1.55;;;;;;;12.15;89.51;101490.16;5087171;28;20048;-71
2021/12/31 07:31:20;;;;;;;2.72;1.30;;;;;;;12.11;89.58;101485.25;5056352;28;20047;-69
2021/12/31 07:33:52;;;;;;;1.98;1.05;;;;;;;12.08;89.81;101482.84;5067891;28;20049;-70
2021/12/31 07:36:19;;;;;;;2.08;1.30;;;;;;;12.11;89.06;101487.88;5066678;28;20044;-71
2021/12/31 07:38:58;;;;;;;1.08;0.85;;;;;;;12.11;89.57;101486.09;5057568;28;20052;-72
2021/12/31 07:41:27;;;;;;;3.22;1.70;;;;;;;12.12;89.73;101500.09;5056033;28;20407;-73
2021/12/31 07:43:59;;;;;;;10.18;2.13;;;;;;;12.11;89.22;101490.50;5082997;28;20048;-71
2021/12/31 07:46:26;;;;;;;4.47;1.83;;;;;;;11.99;89.97;101481.72;5076357;28;20777;-73
2021/12/31 07:48:56;;;;;;;2.75;1.25;;;;;;;12.02;90.07;101478.06;5083520;28;20504;-72
2021/12/31 07:51:23;;;;;;;8.95;1.23;;;;;;;12.07;89.81;101491.72;5077249;28;20031;-71
2021/12/31 07:53:50;;;;;;;6.03;1.70;;;;;;;12.04;90.03;101494.56;5062284;28;20042;-70
2021/12/31 07:56:21;;;;;;;2.13;1.35;;;;;;;12.07;89.53;101510.97;5076519;28;20724;-74
2021/12/31 07:58:52;;;;;;;4.63;1.42;;;;;;;12.10;89.45;101494.94;5092376;28;20104;-73
2021/12/31 08:01:20;;;;;;;3.15;1.50;;;;;;;12.11;89.32;101493.16;5093659;28;20044;-72
2021/12/31 08:03:57;;;;;;;4.38;1.70;;;;;;;12.09;89.45;101492.44;5049456;28;20052;-71
2021/12/31 08:06:28;;;;;;;3.35;1.90;;;;;;;12.08;89.07;101493.38;5046923;28;20041;-72
2021/12/31 08:09:06;;;;;;;5.97;1.63;;;;;;;12.11;89.17;101493.16;5039464;28;20071;-71
2021/12/31 08:11:51;;;;;;;10.60;2.03;;;;;;;12.16;88.25;101496.31;5047538;28;20055;-70
2021/12/31 08:14:19;;;;;;;2.40;1.35;;;;;;;12.15;88.44;101503.34;5041414;28;20546;-70
2021/12/31 08:17:01;;;;;;;3.38;1.58;;;;;;;12.13;88.54;101517.59;5038454;28;20048;-71
2021/12/31 08:19:28;;;;;;;15.48;2.78;;;;;;;12.15;88.82;101520.97;5036927;28;20144;-68
2021/12/31 08:21:56;;;;;;;3.80;1.70;;;;;;;12.12;88.91;101526.44;5038043;28;20115;-68
2021/12/31 08:24:27;;;;;;;4.00;1.20;;;;;;;12.17;88.32;101529.59;5052379;28;20052;-69
2021/12/31 08:27:04;;;;;;;4.30;1.20;;;;;;;12.23;87.91;101535.22;5028586;28;20088;-70
2021/12/31 08:29:37;;;;;;;3.75;1.40;;;;;;;12.29;87.40;101540.06;5030974;28;20152;-70
2021/12/31 08:32:06;;;;;;;1.88;1.00;;;;;;;12.31;87.60;101542.59;5039142;28;20057;-70
2021/12/31 08:34:34;;;;;;;3.28;1.35;;;;;;;12.34;87.46;101551.09;5032722;28;20048;-69
2021/12/31 08:37:20;;;;;;;2.60;1.15;;;;;;;12.46;86.35;101563.38;5034060;28;20074;-69
2021/12/31 08:39:46;;;;;;;4.75;0.82;;;;;;;12.52;86.40;101557.66;5033342;28;20499;-71
2021/12/31 08:42:13;;;;;;;2.08;1.30;;;;;;;12.54;86.52;101552.25;5037176;28;20514;-70
2021/12/31 08:44:53;;;;;;;5.90;1.33;;;;;;;12.59;85.80;101548.34;5031969;28;20052;-70
2021/12/31 08:47:28;;;;;;;3.53;1.60;;;;;;;12.62;85.97;101563.06;5034631;28;20046;-71
2021/12/31 08:49:54;;;;;;;6.22;1.45;;;;;;;12.65;86.06;101565.50;5031836;28;20041;-71
2021/12/31 08:52:21;;;;;;;2.33;1.20;;;;;;;12.68;85.29;101554.72;5036225;28;22428;-71
2021/12/31 08:54:48;;;;;;;4.95;2.05;;;;;;;12.71;85.36;101544.78;5028428;28;20044;-72
2021/12/31 08:57:17;;;;;;;5.57;1.65;;;;;;;12.76;85.22;101534.72;5033206;28;20041;-69
2021/12/31 09:00:04;;;;;;;1.38;0.90;;;;;;;12.89;84.04;101548.69;5032346;28;20064;-72
2021/12/31 09:02:35;;;;;;;3.42;1.60;;;;;;;12.91;84.43;101541.50;5041339;28;20051;-71
2021/12/31 09:05:13;;;;;;;2.88;1.50;;;;;;;13.00;83.63;101539.03;5068960;28;20051;-74
2021/12/31 09:07:57;;;;;;;2.47;1.45;;;;;;;13.41;82.68;101536.66;5058649;28;20044;-72
2021/12/31 09:10:27;;;;;;;3.28;1.10;;;;;;;13.70;80.53;101529.91;5073465;28;20386;-73
2021/12/31 09:13:08;;;;;;;2.83;1.40;;;;;;;13.34;81.63;101527.53;5057139;28;20056;-72
2021/12/31 09:15:39;;;;;;;1.92;1.10;;;;;;;13.12;83.34;101543.34;5070180;28;20048;-73
2021/12/31 09:18:15;;;;;;;7.25;1.50;;;;;;;12.94;83.83;101533.38;5078435;28;20538;-74
2021/12/31 09:20:41;;;;;;;2.33;1.17;;;;;;;12.88;83.47;101536.50;5075078;28;20555;-74
2021/12/31 09:23:14;;;;;;;2.63;1.30;;;;;;;12.81;83.84;101530.78;5074208;28;20048;-72
2021/12/31 09:25:44;;;;;;;2.08;1.13;;;;;;;12.77;84.62;101542.50;5064298;28;20110;-72
2021/12/31 09:28:16;;;;;;;3.72;1.17;;;;;;;12.80;83.99;101537.03;5074561;28;20059;-72
2021/12/31 09:30:43;;;;;;;5.00;1.00;;;;;;;12.87;83.78;101538.22;5077889;28;20035;-73
2021/12/31 09:33:25;;;;;;;2.38;1.35;;;;;;;12.93;83.61;101532.50;5072318;28;20144;-72
2021/12/31 09:35:58;;;;;;;3.50;1.30;;;;;;;12.98;83.59;101535.66;5059181;28;20036;-72
2021/12/31 09:38:26;;;;;;;5.38;1.35;;;;;;;13.07;82.79;101534.09;5057642;28;20046;-74
2021/12/31 09:40:58;;;;;;;2.30;1.25;;;;;;;13.14;83.26;101530.03;5076121;28;20032;-74
2021/12/31 09:43:26;;;;;;;5.72;1.30;;;;;;;13.12;82.41;101532.78;5075900;28;20082;-73
2021/12/31 09:46:12;;;;;;;7.55;1.33;;;;;;;13.16;81.81;101523.69;5069351;28;20073;-71
2021/12/31 09:48:40;;;;;;;6.50;1.40;;;;;;;13.17;82.27;101519.25;5076922;28;20048;-73
2021/12/31 09:51:15;;;;;;;6.93;1.48;;;;;;;13.12;82.32;101511.69;5077766;28;20127;-72
2021/12/31 09:53:52;;;;;;;2.03;1.20;;;;;;;13.17;82.22;101509.53;5053016;28;20455;-73
2021/12/31 09:56:19;;;;;;;2.53;1.20;;;;;;;13.21;82.26;101531.25;5076790;28;20072;-74
2021/12/31 09:58:51;;;;;;;1.42;1.02;;;;;;;13.18;82.59;101531.50;5074000;28;20037;-72
2021/12/31 10:01:18;;;;;;;3.22;1.52;;;;;;;13.17;81.76;101535.09;5080339;28;20044;-72
2021/12/31 10:04:01;;;;;;;;;;;;;;;13.25;81.96;101532.69;5070804;28;20078;-73
2021/12/31 10:06:28;;;;;;;1.98;0.85;;;;;;;13.44;81.05;101549.59;5078807;28;20015;-74
2021/12/31 10:09:13;;;;;;;4.50;1.30;;;;;;;13.42;81.06;101540.97;5081477;28;20059;-71
2021/12/31 10:11:44;;;;;;;3.63;1.30;;;;;;;13.39;81.62;101538.56;5091167;28;20048;-72
2021/12/31 10:14:16;;;;;;;1.90;1.20;;;;;;;13.43;81.62;101537.38;5080897;28;20051;-72
2021/12/31 10:16:51;;;;;;;3.65;1.50;;;;;;;13.49;80.87;101543.97;5071350;28;20040;-72
2021/12/31 10:19:19;;;;;;;1.80;1.10;;;;;;;13.55;80.82;101552.25;5073359;28;20040;-73
2021/12/31 10:21:50;;;;;;;2.20;0.88;;;;;;;13.50;80.28;101528.00;5077210;28;20055;-74
2021/12/31 10:24:22;;;;;;;3.78;1.30;;;;;;;13.46;80.83;101531.84;5049938;28;20047;-74
2021/12/31 10:26:56;;;;;;;2.30;1.30;;;;;;;13.42;81.03;101519.84;5059887;28;20044;-72
2021/12/31 10:29:27;;;;;;;4.57;1.55;;;;;;;13.42;80.02;101514.56;5074804;28;20047;-75
2021/12/31 10:31:55;;;;;;;3.72;1.23;;;;;;;13.45;80.59;101532.81;5084275;28;20041;-72
2021/12/31 10:34:33;;;;;;;3.22;1.13;;;;;;;13.39;81.11;101514.81;5070341;28;20055;-74
2021/12/31 10:37:15;;;;;;;1.15;0.75;;;;;;;13.42;80.51;101524.31;5078293;28;20068;-73
2021/12/31 10:39:56;;;;;;;2.35;1.00;;;;;;;13.39;81.27;101530.66;5071372;28;20047;-74
2021/12/31 10:42:29;;;;;;;2.30;1.05;;;;;;;13.37;81.20;101524.66;5074310;28;20044;-72
2021/12/31 10:45:00;;;;;;;2.88;1.23;;;;;;;13.37;80.63;101522.03;5069984;28;20047;-72
2021/12/31 10:47:30;;;;;;;2.28;1.15;;;;;;;13.39;81.12;101488.44;5070206;28;20101;-73
2021/12/31 10:50:13;;;;;;;1.75;1.05;;;;;;;13.38;81.18;101476.19;5069541;28;20093;-73
2021/12/31 10:52:44;;;;;;;5.10;0.93;;;;;;;13.38;80.67;101468.28;5071446;28;20121;-72
2021/12/31 10:55:21;;;;;;;1.55;0.90;;;;;;;13.40;80.75;101466.38;5056861;28;20039;-73
2021/12/31 10:58:01;;;;;;;3.83;1.35;;;;;;;13.45;80.47;101461.53;5066397;28;20047;-73
2021/12/31 11:00:46;;;;;;;1.55;1.00;;;;;;;13.57;80.28;101471.16;5073401;28;20117;-75
2021/12/31 11:03:13;;;;;;;1.40;0.85;;;;;;;13.59;80.08;101484.22;5068585;28;20047;-73
2021/12/31 11:05:48;;;;;;;2.20;1.00;;;;;;;13.62;79.55;101505.94;5078252;28;20048;-76
2021/12/31 11:08:27;;;;;;;3.25;1.00;;;;;;;13.67;80.25;101511.66;5069475;28;20534;-73
2021/12/31 11:10:57;;;;;;;3.17;0.98;;;;;;;13.71;80.38;101511.31;5075709;28;20047;-72
2021/12/31 11:13:30;;;;;;;2.13;1.10;;;;;;;13.90;79.60;101513.34;5073088;28;20131;-74
2021/12/31 11:16:01;;;;;;;1.17;0.60;;;;;;;14.02;77.74;101507.91;5057427;28;20063;-72
2021/12/31 11:18:28;;;;;;;2.65;1.45;;;;;;;14.13;78.39;101507.88;5051939;28;20482;-70
2021/12/31 11:21:15;;;;;;;2.50;0.75;;;;;;;14.18;77.43;101489.00;5075624;28;20044;-73
2021/12/31 11:23:49;;;;;;;3.92;1.30;;;;;;;14.31;76.99;101500.25;5052468;28;20181;-72
2021/12/31 11:26:28;;;;;;;2.92;1.10;;;;;;;14.41;77.51;101498.50;5075887;28;20123;-72
2021/12/31 11:28:58;;;;;;;0.85;0.68;;;;;;;14.49;75.81;101478.41;5064765;28;20056;-72
2021/12/31 11:31:26;;;;;;;3.30;1.10;;;;;;;14.63;77.07;101475.44;5071193;28;20375;-72
2021/12/31 11:34:14;;;;;;;1.20;0.82;;;;;;;15.23;74.14;101480.81;5063822;28;20048;-76
2021/12/31 11:36:52;;;;;;;1.73;0.93;;;;;;;15.22;73.44;101468.53;5073852;28;20375;-71
2021/12/31 11:39:29;;;;;;;1.63;0.70;;;;;;;15.09;73.08;101460.81;5070655;28;20051;-73
2021/12/31 11:42:15;;;;;;;1.85;0.70;;;;;;;14.97;73.28;101459.25;5077543;28;20048;-73
2021/12/31 11:45:04;;;;;;;3.80;1.00;;;;;;;14.65;75.50;101468.22;5071609;28;20039;-72
2021/12/31 11:47:39;;;;;;;1.75;0.80;;;;;;;14.59;75.58;101469.56;5078318;28;20047;-72
2021/12/31 11:50:29;;;;;;;3.72;0.98;;;;;;;14.72;76.48;101480.81;5070202;28;20070;-70
2021/12/31 11:53:04;;;;;;;2.15;1.00;;;;;;;14.76;75.79;101471.63;5072726;28;20059;-70
2021/12/31 11:55:43;;;;;;;1.10;0.70;;;;;;;14.59;76.08;101466.09;5072079;28;20043;-70
2021/12/31 11:58:36;;;;;;;2.47;1.05;;;;;;;14.43;76.29;101446.34;5078151;28;20047;-72